Bristol, Tennessee
Current Conditions -  °F | °C
As of 3:55 PM on Thursday 18 Dec 2014 (Local Time) from KVJI Reporting Station
Overcast Overcast  
Wind Chill: 38°   Ceiling: 5000
Heat Index: 41°   Visibility: 10mi
Dew Point: 25°   Wind: 5mph
Humidity: 53%   Direction: 330°NNW
Pressure: 30.09"   Gusts: NA
Location:  36.59°N, 82.22°W
Report Text: KVJI 182055Z AUTO 33004KT 10SM OVC050 05/M04 A3009 RMK AO2 T00501038
Loading
Personal Weather Stations






























Interactive Weather Map New forecast layout! Learn more

10-Day Weather Forecast

Advertisements
Track Severe Weather on mobile